createdAt,value
2022-12-07T00:01:41.487Z,4.87
2022-12-07T00:04:10.202Z,5.00
2022-12-07T00:06:38.875Z,4.90
2022-12-07T00:09:07.032Z,5.00
2022-12-07T00:11:34.642Z,4.23
2022-12-07T00:14:03.451Z,6.23
2022-12-07T00:16:32.613Z,6.23
2022-12-07T00:19:01.716Z,6.17
2022-12-07T00:21:29.891Z,6.30
2022-12-07T00:23:57.934Z,4.30
2022-12-07T00:26:27.094Z,6.00
2022-12-07T00:28:55.644Z,6.33
2022-12-07T00:31:24.265Z,6.40
2022-12-07T00:33:51.827Z,5.20
2022-12-07T00:36:26.308Z,5.90
2022-12-07T00:38:54.377Z,5.60
2022-12-07T00:41:22.903Z,6.17
2022-12-07T00:43:50.838Z,3.60
2022-12-07T00:46:18.948Z,4.77
2022-12-07T00:48:46.683Z,5.83
2022-12-07T00:51:15.336Z,5.30
2022-12-07T00:53:44.143Z,3.60
2022-12-07T00:56:13.533Z,5.40
2022-12-07T00:58:41.094Z,4.97
2022-12-07T01:01:09.315Z,5.50
2022-12-07T01:03:37.432Z,4.50
2022-12-07T01:06:05.559Z,5.50
2022-12-07T01:08:33.067Z,4.07
2022-12-07T01:11:02.859Z,3.50
2022-12-07T01:13:30.534Z,4.77
2022-12-07T01:15:59.008Z,4.17
2022-12-07T01:18:26.471Z,4.00
2022-12-07T01:20:59.366Z,4.50
2022-12-07T01:23:26.928Z,3.97
2022-12-07T01:25:56.163Z,4.40
2022-12-07T01:28:25.088Z,3.47
2022-12-07T01:30:59.782Z,4.47
2022-12-07T01:33:28.824Z,3.00
2022-12-07T01:35:56.306Z,2.40
2022-12-07T01:38:23.989Z,3.90
2022-12-07T01:40:55.885Z,4.40
2022-12-07T01:43:25.495Z,2.93
2022-12-07T01:45:53.089Z,3.33
2022-12-07T01:48:22.464Z,3.07
2022-12-07T01:50:50.900Z,3.23
2022-12-07T01:53:19.215Z,4.00
2022-12-07T01:55:48.012Z,4.30
2022-12-07T01:58:16.325Z,3.10
2022-12-07T02:00:45.236Z,3.50
2022-12-07T02:03:16.632Z,4.07
2022-12-07T02:05:44.654Z,0.87
2022-12-07T02:08:12.864Z,4.23
2022-12-07T02:10:40.417Z,4.50
2022-12-07T02:13:10.189Z,4.53
2022-12-07T02:15:44.227Z,5.40
2022-12-07T02:18:16.339Z,4.50
2022-12-07T02:20:46.592Z,5.17
2022-12-07T02:23:32.556Z,6.20
2022-12-07T02:26:10.708Z,5.30
2022-12-07T02:28:39.058Z,5.37
2022-12-07T02:31:10.166Z,5.03
2022-12-07T02:33:38.562Z,4.40
2022-12-07T02:36:07.855Z,5.60
2022-12-07T02:38:39.087Z,5.53
2022-12-07T02:41:07.983Z,5.13
2022-12-07T02:43:37.221Z,5.43
2022-12-07T02:46:06.025Z,5.87
2022-12-07T02:48:35.412Z,5.20
2022-12-07T02:51:02.852Z,5.63
2022-12-07T02:53:30.705Z,5.03
2022-12-07T02:55:58.352Z,5.80
2022-12-07T02:58:31.296Z,3.90
2022-12-07T03:01:05.848Z,4.97
2022-12-07T03:03:37.577Z,4.87
2022-12-07T03:06:10.255Z,3.23
2022-12-07T03:08:45.299Z,4.73
2022-12-07T03:11:20.412Z,5.70
2022-12-07T03:13:50.916Z,5.20
2022-12-07T03:16:19.173Z,4.63
2022-12-07T03:18:49.529Z,2.87
2022-12-07T03:21:19.644Z,4.07
2022-12-07T03:23:49.480Z,4.63
2022-12-07T03:26:18.405Z,4.87
2022-12-07T03:28:47.299Z,1.60
2022-12-07T03:31:18.060Z,4.43
2022-12-07T03:33:49.880Z,5.10
2022-12-07T03:36:20.851Z,5.00
2022-12-07T03:38:50.647Z,4.40
2022-12-07T03:41:20.549Z,5.30
2022-12-07T03:43:48.403Z,4.67
2022-12-07T03:46:20.518Z,5.07
2022-12-07T03:48:54.445Z,5.57
2022-12-07T03:51:24.724Z,4.03
2022-12-07T03:53:54.510Z,3.57
2022-12-07T03:56:22.388Z,4.23
2022-12-07T03:58:50.694Z,5.67
2022-12-07T04:01:19.625Z,5.40
2022-12-07T04:03:47.172Z,5.00
2022-12-07T04:06:14.712Z,5.90
2022-12-07T04:08:43.551Z,5.27
2022-12-07T04:11:11.002Z,5.10
2022-12-07T04:13:52.693Z,5.50
2022-12-07T04:16:20.390Z,3.27
2022-12-07T04:18:47.897Z,4.90
2022-12-07T04:21:15.361Z,4.80
2022-12-07T04:23:44.166Z,4.93
2022-12-07T04:26:11.609Z,5.50
2022-12-07T04:28:39.150Z,4.80
2022-12-07T04:31:06.826Z,4.17
2022-12-07T04:33:34.339Z,3.77
2022-12-07T04:36:01.783Z,4.83
2022-12-07T04:38:29.251Z,3.43
2022-12-07T04:40:58.176Z,4.60
2022-12-07T04:43:25.637Z,3.50
2022-12-07T04:45:53.128Z,5.43
2022-12-07T04:48:20.675Z,4.60
2022-12-07T04:50:50.303Z,4.30
2022-12-07T04:53:17.813Z,4.23
2022-12-07T04:55:45.637Z,3.50
2022-12-07T04:58:14.703Z,3.57
2022-12-07T05:00:42.352Z,3.33
2022-12-07T05:03:09.873Z,4.13
2022-12-07T05:05:37.361Z,3.30
2022-12-07T05:08:04.917Z,3.30
2022-12-07T05:10:32.396Z,3.50
2022-12-07T05:12:59.820Z,2.63
2022-12-07T05:15:28.589Z,2.97
2022-12-07T05:17:56.041Z,3.00
2022-12-07T05:20:23.478Z,3.27
2022-12-07T05:22:50.923Z,2.87
2022-12-07T05:25:18.375Z,3.27
2022-12-07T05:27:45.825Z,3.43
2022-12-07T05:30:13.804Z,3.23
2022-12-07T05:32:42.626Z,2.13
2022-12-07T05:35:10.474Z,2.53
2022-12-07T05:37:37.930Z,2.93
2022-12-07T05:40:06.011Z,2.63
2022-12-07T05:42:33.751Z,2.57
2022-12-07T05:45:01.232Z,2.70
2022-12-07T05:47:28.688Z,2.13
2022-12-07T05:49:57.580Z,3.13
2022-12-07T05:52:25.337Z,3.00
2022-12-07T05:54:52.759Z,2.20
2022-12-07T05:57:20.240Z,2.83
2022-12-07T05:59:46.737Z,2.00
2022-12-07T06:02:15.556Z,2.27
2022-12-07T06:04:44.146Z,2.50
2022-12-07T06:07:13.558Z,2.13
2022-12-07T06:09:41.345Z,2.30
2022-12-07T06:12:28.763Z,2.63
2022-12-07T06:14:56.259Z,2.03
2022-12-07T06:17:23.716Z,2.47
2022-12-07T06:19:51.303Z,2.63
2022-12-07T06:22:20.140Z,1.83
2022-12-07T06:24:47.651Z,3.30
2022-12-07T06:27:15.154Z,3.30
2022-12-07T06:29:42.640Z,2.97
2022-12-07T06:32:10.349Z,2.40
2022-12-07T06:34:37.866Z,3.07
2022-12-07T06:37:05.444Z,2.57
2022-12-07T06:39:34.272Z,3.27
2022-12-07T06:42:01.699Z,2.97
2022-12-07T06:44:29.140Z,1.40
2022-12-07T06:47:18.874Z,2.30
2022-12-07T06:49:44.063Z,2.67
2022-12-07T06:52:11.503Z,1.93
2022-12-07T06:54:40.288Z,1.20
2022-12-07T06:57:08.031Z,2.90
2022-12-07T06:59:35.509Z,1.77
2022-12-07T07:02:03.398Z,1.23
2022-12-07T07:04:30.913Z,2.60
2022-12-07T07:07:00.194Z,2.07
2022-12-07T07:09:28.119Z,2.70
2022-12-07T07:11:56.947Z,2.60
2022-12-07T07:14:24.408Z,3.40
2022-12-07T07:16:52.001Z,2.07
2022-12-07T07:19:19.520Z,1.97
2022-12-07T07:21:47.370Z,2.83
2022-12-07T07:24:14.820Z,2.53
2022-12-07T07:26:42.274Z,1.23
2022-12-07T07:29:11.037Z,2.37
2022-12-07T07:31:38.508Z,2.43
2022-12-07T07:34:06.290Z,0.97
2022-12-07T07:36:34.470Z,2.10
2022-12-07T07:39:01.975Z,2.20
2022-12-07T07:41:29.682Z,1.43
2022-12-07T07:43:57.261Z,2.53
2022-12-07T07:46:26.086Z,2.80
2022-12-07T07:48:53.612Z,1.80
2022-12-07T07:51:21.077Z,2.43
2022-12-07T07:53:48.544Z,1.80
2022-12-07T07:56:16.073Z,1.90
2022-12-07T07:58:43.534Z,2.80
2022-12-07T08:01:11.036Z,2.30
2022-12-07T08:03:39.869Z,1.87
2022-12-07T08:06:07.664Z,3.63
2022-12-07T08:08:35.091Z,2.57
2022-12-07T08:11:02.632Z,1.97
2022-12-07T08:13:31.486Z,2.47
2022-12-07T08:15:59.358Z,1.33
2022-12-07T08:18:26.867Z,3.77
2022-12-07T08:21:00.374Z,2.63
2022-12-07T08:23:37.383Z,1.67
2022-12-07T08:26:07.787Z,3.30
2022-12-07T08:28:35.304Z,1.80
2022-12-07T08:31:03.188Z,4.80
2022-12-07T08:33:30.735Z,1.57
2022-12-07T08:36:03.640Z,4.13
2022-12-07T08:38:32.090Z,4.57
2022-12-07T08:41:00.676Z,1.67
2022-12-07T08:43:28.230Z,4.73
2022-12-07T08:45:59.160Z,4.20
2022-12-07T08:48:27.155Z,1.20
2022-12-07T08:50:54.702Z,3.70
2022-12-07T08:53:23.605Z,2.90
2022-12-07T08:55:51.377Z,3.33
2022-12-07T08:58:18.836Z,3.37
2022-12-07T09:00:46.350Z,1.70
2022-12-07T09:03:13.809Z,4.20
2022-12-07T09:05:41.402Z,1.90
2022-12-07T09:08:09.584Z,2.90
2022-12-07T09:10:38.481Z,4.30
2022-12-07T09:13:05.968Z,3.77
2022-12-07T09:15:33.478Z,2.90
2022-12-07T09:18:01.060Z,4.23
2022-12-07T09:20:28.606Z,3.93
2022-12-07T09:22:56.105Z,3.60
2022-12-07T09:25:23.594Z,3.13
2022-12-07T09:27:56.743Z,3.53
2022-12-07T09:30:24.544Z,3.07
2022-12-07T09:32:51.963Z,2.50
2022-12-07T09:35:19.383Z,2.43
2022-12-07T09:37:46.834Z,2.63
2022-12-07T09:40:15.196Z,3.03
2022-12-07T09:42:45.429Z,2.93
2022-12-07T09:45:16.514Z,2.70
2022-12-07T09:47:44.335Z,3.53
2022-12-07T09:50:14.947Z,3.13
2022-12-07T09:52:43.003Z,2.77
2022-12-07T09:55:12.407Z,1.43
2022-12-07T09:57:40.709Z,3.40
2022-12-07T10:00:12.235Z,1.70
2022-12-07T10:02:42.884Z,0.87
2022-12-07T10:05:17.696Z,1.73
2022-12-07T10:07:48.427Z,2.93
2022-12-07T10:10:18.214Z,1.27
2022-12-07T10:12:56.047Z,2.93
2022-12-07T10:15:24.065Z,2.50
2022-12-07T10:17:53.948Z,4.00
2022-12-07T10:20:23.183Z,3.20
2022-12-07T10:22:57.759Z,3.50
2022-12-07T10:25:27.741Z,1.20
2022-12-07T10:28:11.811Z,3.00
2022-12-07T10:30:48.266Z,3.27
2022-12-07T10:33:29.002Z,3.30
2022-12-07T10:35:56.604Z,2.17
2022-12-07T10:38:24.260Z,3.47
2022-12-07T10:41:04.520Z,2.60
2022-12-07T10:43:33.528Z,2.93
2022-12-07T10:46:16.136Z,1.87
2022-12-07T10:48:48.229Z,3.20
2022-12-07T10:51:18.364Z,2.13
2022-12-07T10:53:49.347Z,3.00
2022-12-07T10:56:31.543Z,1.87
2022-12-07T10:59:05.271Z,1.30
2022-12-07T11:01:35.253Z,1.00
2022-12-07T11:04:10.184Z,2.30
2022-12-07T11:06:40.282Z,1.17
2022-12-07T11:10:06.249Z,3.03
2022-12-07T11:12:23.998Z,2.47
2022-12-07T11:14:54.776Z,3.30
2022-12-07T11:17:26.287Z,3.63
2022-12-07T11:20:04.409Z,3.17
2022-12-07T11:22:38.647Z,3.27
2022-12-07T11:25:17.585Z,2.57
2022-12-07T11:27:49.412Z,2.70
2022-12-07T11:30:21.715Z,2.80
2022-12-07T11:32:59.596Z,1.27
2022-12-07T11:35:33.644Z,0.73
2022-12-07T11:38:02.540Z,2.97
2022-12-07T11:40:35.252Z,3.40
2022-12-07T11:43:04.074Z,3.00
2022-12-07T11:45:33.897Z,2.57
2022-12-07T11:48:03.224Z,2.53
2022-12-07T11:50:36.487Z,1.63
2022-12-07T11:53:06.035Z,2.10
2022-12-07T11:55:43.227Z,2.53
2022-12-07T11:58:17.653Z,2.70
2022-12-07T12:00:45.201Z,2.90
2022-12-07T12:03:14.916Z,3.10
2022-12-07T12:05:43.796Z,2.97
2022-12-07T12:11:10.770Z,2.40
2022-12-07T12:17:04.407Z,2.90
2022-12-07T12:19:35.070Z,2.33
2022-12-07T12:22:07.892Z,3.13
2022-12-07T12:24:37.388Z,1.83
2022-12-07T12:27:07.174Z,2.37
2022-12-07T12:29:36.040Z,2.77
2022-12-07T12:32:07.848Z,1.97
2022-12-07T12:34:42.940Z,1.30
2022-12-07T12:37:33.015Z,1.83
2022-12-07T12:40:19.254Z,2.03
2022-12-07T12:42:48.795Z,1.80
2022-12-07T12:45:21.412Z,1.80
2022-12-07T12:47:56.010Z,3.50
2022-12-07T12:50:25.390Z,2.13
2022-12-07T12:53:13.913Z,1.33
2022-12-07T12:55:56.244Z,1.87
2022-12-07T12:58:32.378Z,2.77
2022-12-07T13:01:18.454Z,2.73
2022-12-07T13:03:53.912Z,2.60
2022-12-07T13:06:34.440Z,2.73
2022-12-07T13:09:02.254Z,1.77
2022-12-07T13:11:31.504Z,1.90
2022-12-07T13:14:13.886Z,2.80
2022-12-07T13:16:43.492Z,2.57
2022-12-07T13:19:44.339Z,2.67
2022-12-07T13:22:31.018Z,2.60
2022-12-07T13:24:59.171Z,1.77
2022-12-07T13:27:27.245Z,2.17
2022-12-07T13:29:54.724Z,2.20
2022-12-07T13:32:25.673Z,1.30
2022-12-07T13:34:53.148Z,2.23
2022-12-07T13:37:26.779Z,2.13
2022-12-07T13:39:56.018Z,2.07
2022-12-07T13:42:26.546Z,1.93
2022-12-07T13:44:54.454Z,1.80
2022-12-07T13:47:25.212Z,1.70
2022-12-07T13:49:54.733Z,1.73
2022-12-07T13:52:23.289Z,2.07
2022-12-07T13:54:51.771Z,1.70
2022-12-07T13:57:19.597Z,1.27
2022-12-07T13:59:47.336Z,1.50
2022-12-07T14:02:21.619Z,1.63
2022-12-07T14:04:50.360Z,1.43
2022-12-07T14:07:23.366Z,1.77
2022-12-07T14:09:57.919Z,1.07
2022-12-07T14:12:26.242Z,1.60
2022-12-07T14:14:54.502Z,1.27
2022-12-07T14:17:23.609Z,1.40
2022-12-07T14:19:53.165Z,0.40
2022-12-07T14:22:29.317Z,1.40
2022-12-07T14:25:11.452Z,1.30
2022-12-07T14:27:38.943Z,1.20
2022-12-07T14:30:07.142Z,1.70
2022-12-07T14:32:36.786Z,1.57
2022-12-07T14:35:05.521Z,1.57
2022-12-07T14:37:34.633Z,1.43
2022-12-07T14:40:02.090Z,1.87
2022-12-07T14:42:31.593Z,1.50
2022-12-07T14:44:59.604Z,1.70
2022-12-07T14:50:15.906Z,0.70
2022-12-07T14:55:33.469Z,1.50
2022-12-07T14:58:00.970Z,1.07
2022-12-07T15:00:29.481Z,0.90
2022-12-07T15:02:57.300Z,1.73
2022-12-07T15:05:25.220Z,1.13
2022-12-07T15:07:54.148Z,1.00
2022-12-07T15:10:24.376Z,1.40
2022-12-07T15:12:52.144Z,1.27
2022-12-07T15:15:19.694Z,1.10
2022-12-07T15:17:47.150Z,0.93
2022-12-07T15:20:15.325Z,1.33
2022-12-07T15:22:43.029Z,0.57
2022-12-07T15:25:14.268Z,1.10
2022-12-07T15:27:41.751Z,0.90
2022-12-07T15:30:09.668Z,1.13
2022-12-07T15:32:37.317Z,1.20
2022-12-07T15:35:05.589Z,0.67
2022-12-07T15:37:33.438Z,0.97
2022-12-07T15:40:07.264Z,1.23
2022-12-07T15:42:36.885Z,0.80
2022-12-07T15:45:07.180Z,0.93
2022-12-07T15:47:54.968Z,0.90
2022-12-07T15:50:24.484Z,1.30
2022-12-07T15:52:51.931Z,1.40
2022-12-07T15:55:19.464Z,0.53
2022-12-07T15:57:48.755Z,0.90
2022-12-07T16:00:16.614Z,1.27
2022-12-07T16:02:44.149Z,0.63
2022-12-07T16:05:11.646Z,0.77
2022-12-07T16:07:39.307Z,1.00
2022-12-07T16:10:07.424Z,1.43
2022-12-07T16:12:34.932Z,1.33
2022-12-07T16:15:03.892Z,1.30
2022-12-07T16:17:31.617Z,0.70
2022-12-07T16:19:59.133Z,0.63
2022-12-07T16:22:26.611Z,1.20
2022-12-07T16:24:54.139Z,0.77
2022-12-07T16:27:21.555Z,1.00
2022-12-07T16:29:49.004Z,1.37
2022-12-07T16:32:17.823Z,1.30
2022-12-07T16:34:45.314Z,1.20
2022-12-07T16:37:12.778Z,1.20
2022-12-07T16:39:40.204Z,0.73
2022-12-07T16:42:07.804Z,0.80
2022-12-07T16:44:35.293Z,1.30
2022-12-07T16:47:02.864Z,1.27
2022-12-07T16:49:31.946Z,1.20
2022-12-07T16:54:47.050Z,1.10
2022-12-07T16:57:20.207Z,1.20
2022-12-07T16:59:50.352Z,1.33
2022-12-07T17:02:17.800Z,1.50
2022-12-07T17:04:46.620Z,1.40
2022-12-07T17:07:14.067Z,0.70
2022-12-07T17:09:41.715Z,0.93
2022-12-07T17:12:09.175Z,1.00
2022-12-07T17:14:54.440Z,1.10
2022-12-07T17:17:21.949Z,0.60
2022-12-07T17:19:50.749Z,0.80
2022-12-07T17:22:18.216Z,1.20
2022-12-07T17:24:45.722Z,1.30
2022-12-07T17:27:13.172Z,1.00
2022-12-07T17:29:40.620Z,1.37
2022-12-07T17:32:08.101Z,1.63
2022-12-07T17:34:37.720Z,1.40
2022-12-07T17:37:06.512Z,1.63
2022-12-07T17:39:33.944Z,1.20
2022-12-07T17:42:18.661Z,1.60
2022-12-07T17:44:46.119Z,1.33
2022-12-07T17:47:15.608Z,0.57
2022-12-07T17:49:43.123Z,1.30
2022-12-07T17:52:29.429Z,1.30
2022-12-07T17:54:56.903Z,1.90
2022-12-07T17:57:24.367Z,1.83
2022-12-07T17:59:52.221Z,1.90
2022-12-07T18:02:19.927Z,1.60
2022-12-07T18:04:47.561Z,1.83
2022-12-07T18:07:16.467Z,1.67
2022-12-07T18:09:43.917Z,1.30
2022-12-07T18:12:11.410Z,1.40
2022-12-07T18:14:39.006Z,0.30
2022-12-07T18:17:06.485Z,2.20
2022-12-07T18:19:37.209Z,0.30
2022-12-07T18:22:04.830Z,1.60
2022-12-07T18:24:37.167Z,1.27
2022-12-07T18:27:05.205Z,1.57
2022-12-07T18:29:32.641Z,2.10
2022-12-07T18:32:01.368Z,1.53
2022-12-07T18:34:30.429Z,1.33
2022-12-07T18:36:57.936Z,1.90
2022-12-07T18:39:31.606Z,2.00
2022-12-07T18:42:02.349Z,0.47
2022-12-07T18:44:29.861Z,1.10
2022-12-07T18:46:57.738Z,1.60
2022-12-07T18:49:25.184Z,1.73
2022-12-07T18:51:52.644Z,1.63
2022-12-07T18:54:20.105Z,0.77
2022-12-07T18:56:47.533Z,1.40
2022-12-07T18:59:33.784Z,2.17
2022-12-07T19:02:01.385Z,1.67
2022-12-07T19:04:28.998Z,0.83
2022-12-07T19:06:56.723Z,2.07
2022-12-07T19:09:24.197Z,1.50
2022-12-07T19:11:52.229Z,1.20
2022-12-07T19:14:23.063Z,2.13
2022-12-07T19:16:51.152Z,2.20
2022-12-07T19:19:19.632Z,0.87
2022-12-07T19:21:47.545Z,0.50
2022-12-07T19:24:19.664Z,1.37
2022-12-07T19:26:50.532Z,1.13
2022-12-07T19:29:17.979Z,1.57
2022-12-07T19:31:46.867Z,1.50
2022-12-07T19:34:16.011Z,1.83
2022-12-07T19:36:43.853Z,1.83
2022-12-07T19:39:14.693Z,1.90
2022-12-07T19:41:43.856Z,1.77
2022-12-07T19:44:12.226Z,1.83
2022-12-07T19:46:40.203Z,1.90
2022-12-07T19:49:09.199Z,1.37
2022-12-07T19:51:36.996Z,1.37
2022-12-07T19:54:04.710Z,1.53
2022-12-07T19:56:32.339Z,0.80
2022-12-07T19:59:00.641Z,0.70
2022-12-07T20:01:28.278Z,1.93
2022-12-07T20:03:55.814Z,0.37
2022-12-07T20:06:24.624Z,1.30
2022-12-07T20:08:52.188Z,1.90
2022-12-07T20:11:37.906Z,1.37
2022-12-07T20:14:06.328Z,1.63
2022-12-07T20:16:33.975Z,1.30
2022-12-07T20:19:01.468Z,1.87
2022-12-07T20:21:30.262Z,1.77
2022-12-07T20:24:00.169Z,1.70
2022-12-07T20:26:27.634Z,1.43
2022-12-07T20:28:55.306Z,1.80
2022-12-07T20:31:22.857Z,6.93
2022-12-07T20:33:50.407Z,6.97
2022-12-07T20:36:19.334Z,7.20
2022-12-07T20:38:48.279Z,7.07
2022-12-07T20:41:29.992Z,5.00
2022-12-07T20:43:57.741Z,4.63
2022-12-07T20:46:25.687Z,5.33
2022-12-07T20:48:53.482Z,3.30
2022-12-07T20:51:20.968Z,2.80
2022-12-07T20:53:49.770Z,2.03
2022-12-07T20:56:20.535Z,2.23
2022-12-07T20:58:49.777Z,1.90
2022-12-07T21:01:17.252Z,2.07
2022-12-07T21:03:44.708Z,2.10
2022-12-07T21:06:13.616Z,1.87
2022-12-07T21:08:44.504Z,2.17
2022-12-07T21:11:13.572Z,1.70
2022-12-07T21:13:41.023Z,2.50
2022-12-07T21:16:09.594Z,2.07
2022-12-07T21:18:38.279Z,2.37
2022-12-07T21:21:06.159Z,2.50
2022-12-07T21:23:34.410Z,2.37
2022-12-07T21:26:01.989Z,2.30
2022-12-07T21:28:31.386Z,2.43
2022-12-07T21:31:14.588Z,1.47
2022-12-07T21:33:43.798Z,2.57
2022-12-07T21:36:11.803Z,2.60
2022-12-07T21:38:39.341Z,1.93
2022-12-07T21:41:11.829Z,2.13
2022-12-07T21:43:40.713Z,2.33
2022-12-07T21:46:08.278Z,1.90
2022-12-07T21:48:35.825Z,2.07
2022-12-07T21:51:07.494Z,1.43
2022-12-07T21:53:34.991Z,2.10
2022-12-07T21:56:03.002Z,1.87
2022-12-07T21:58:30.501Z,1.87
2022-12-07T22:00:59.823Z,2.00
2022-12-07T22:03:27.404Z,2.27
2022-12-07T22:06:00.327Z,1.90
2022-12-07T22:08:28.108Z,2.40
2022-12-07T22:10:55.583Z,2.27
2022-12-07T22:13:43.127Z,2.00
2022-12-07T22:16:11.258Z,0.70
2022-12-07T22:18:38.850Z,2.10
2022-12-07T22:21:06.480Z,1.90
2022-12-07T22:23:33.974Z,1.70
2022-12-07T22:26:05.275Z,1.93
2022-12-07T22:28:32.744Z,2.37
2022-12-07T22:31:03.139Z,1.33
2022-12-07T22:33:31.956Z,2.27
2022-12-07T22:36:02.169Z,2.60
2022-12-07T22:38:29.642Z,2.10
2022-12-07T22:40:57.337Z,2.07
2022-12-07T22:43:25.103Z,2.27
2022-12-07T22:45:56.410Z,2.40
2022-12-07T22:48:24.090Z,2.50
2022-12-07T22:50:53.477Z,2.33
2022-12-07T22:53:21.324Z,2.40
2022-12-07T22:55:48.956Z,2.37
2022-12-07T22:58:17.205Z,2.57
2022-12-07T23:00:53.166Z,2.53
2022-12-07T23:03:20.863Z,2.77
2022-12-07T23:05:49.493Z,2.80
2022-12-07T23:08:18.621Z,2.80
2022-12-07T23:10:47.069Z,2.83
2022-12-07T23:13:32.256Z,3.10
2022-12-07T23:16:00.189Z,2.60
2022-12-07T23:18:27.754Z,3.00
2022-12-07T23:20:57.035Z,2.97
2022-12-07T23:23:26.442Z,3.23
2022-12-07T23:25:54.378Z,2.93
2022-12-07T23:28:21.833Z,2.70
2022-12-07T23:30:49.279Z,2.90
2022-12-07T23:33:16.725Z,2.77
2022-12-07T23:35:44.152Z,2.83
2022-12-07T23:38:11.625Z,2.80
2022-12-07T23:40:40.463Z,3.20
2022-12-07T23:43:07.932Z,3.20
2022-12-07T23:45:35.399Z,2.47
2022-12-07T23:48:02.891Z,2.73
2022-12-07T23:50:30.594Z,3.20
2022-12-07T23:52:58.049Z,2.67
2022-12-07T23:55:25.501Z,2.73
2022-12-07T23:57:54.305Z,2.50
